Time;durP1;ratioP1;P1;durP2;ratioP2;P2;SDS_P1;SDS_P2;PMS_P1;PMS_P2;Temp;Humidity;BMP_temperature;BMP_pressure;BME280_temperature;BME280_humidity;BME280_pressure;Samples;Min_cycle;Max_cycle;Signal;HPM_P1;HPM_P2
2021/09/16 00:00:21;;;;;;;6.80;4.50;;;20.40;99.90;;;;;;6335224;22;20002;-81
2021/09/16 00:02:46;;;;;;;5.68;4.95;;;20.50;99.90;;;;;;6334985;22;20009;-81
2021/09/16 00:05:12;;;;;;;9.60;5.03;;;20.50;99.90;;;;;;6304826;22;20003;-82
2021/09/16 00:07:38;;;;;;;7.80;4.55;;;20.50;99.90;;;;;;6333937;22;20421;-81
2021/09/16 00:10:05;;;;;;;7.63;5.25;;;20.50;99.90;;;;;;6333981;22;20379;-81
2021/09/16 00:12:31;;;;;;;5.05;4.55;;;20.50;99.90;;;;;;6306591;22;20017;-78
2021/09/16 00:14:57;;;;;;;6.53;4.47;;;20.40;99.90;;;;;;6334056;22;20031;-78
2021/09/16 00:17:22;;;;;;;5.88;4.85;;;20.50;99.90;;;;;;6334220;22;20068;-79
2021/09/16 00:19:48;;;;;;;5.90;5.35;;;20.40;99.90;;;;;;6332539;22;20056;-80
2021/09/16 00:22:13;;;;;;;6.75;5.05;;;20.50;99.90;;;;;;6333234;22;20006;-79
2021/09/16 00:24:39;;;;;;;6.80;4.63;;;20.50;99.90;;;;;;6305963;22;20003;-79
2021/09/16 00:27:04;;;;;;;6.75;5.75;;;20.50;99.90;;;;;;6333811;22;20007;-79
2021/09/16 00:29:31;;;;;;;5.70;4.93;;;20.50;99.90;;;;;;6333381;22;20011;-79
2021/09/16 00:31:56;;;;;;;5.63;4.78;;;20.50;99.90;;;;;;6333194;22;20014;-81
2021/09/16 00:34:22;;;;;;;7.55;4.78;;;20.50;99.90;;;;;;6306613;22;20003;-81
2021/09/16 00:36:47;;;;;;;6.10;4.72;;;20.50;99.90;;;;;;6333534;22;20086;-81
2021/09/16 00:39:12;;;;;;;8.70;4.60;;;20.60;99.90;;;;;;6332369;22;20033;-79
2021/09/16 00:41:38;;;;;;;7.10;5.47;;;20.60;99.90;;;;;;6305799;22;19999;-79
2021/09/16 00:44:04;;;;;;;8.48;5.53;;;20.60;99.90;;;;;;6332987;22;19999;-79
2021/09/16 00:46:29;;;;;;;7.22;5.57;;;20.50;99.90;;;;;;6334170;22;20014;-79
2021/09/16 00:48:55;;;;;;;7.93;5.60;;;20.50;99.90;;;;;;6333413;22;20396;-79
2021/09/16 00:51:20;;;;;;;6.55;5.75;;;20.60;99.90;;;;;;6332416;22;20007;-80
2021/09/16 00:53:47;;;;;;;5.88;5.30;;;20.60;99.90;;;;;;6334420;22;20149;-80
2021/09/16 00:56:13;;;;;;;7.82;6.25;;;20.60;99.90;;;;;;6333169;22;20007;-80
2021/09/16 00:58:41;;;;;;;7.80;5.60;;;20.60;99.90;;;;;;6332330;22;20029;-80
2021/09/16 01:01:07;;;;;;;9.57;6.53;;;20.60;99.90;;;;;;6333515;22;20003;-80
2021/09/16 01:03:33;;;;;;;8.50;6.40;;;20.60;99.90;;;;;;6333819;22;20011;-78
2021/09/16 01:05:59;;;;;;;8.90;6.45;;;20.60;99.90;;;;;;6334102;22;20003;-80
2021/09/16 01:08:26;;;;;;;7.97;7.10;;;20.60;99.90;;;;;;6333426;22;20056;-80
2021/09/16 01:10:52;;;;;;;12.50;6.40;;;20.60;99.90;;;;;;6334085;22;20038;-82
2021/09/16 01:13:18;;;;;;;11.55;7.13;;;20.50;99.90;;;;;;6334538;22;20007;-78
2021/09/16 01:15:44;;;;;;;11.32;7.97;;;20.50;99.90;;;;;;6335291;22;20294;-79
2021/09/16 01:18:11;;;;;;;8.40;7.18;;;20.50;99.90;;;;;;6333779;22;20086;-78
2021/09/16 01:20:36;;;;;;;9.63;7.43;;;20.50;99.90;;;;;;6334457;22;19998;-78
2021/09/16 01:23:02;;;;;;;10.90;7.63;;;20.50;99.90;;;;;;6333771;22;20369;-78
2021/09/16 01:25:29;;;;;;;9.50;7.35;;;20.50;99.90;;;;;;6334193;22;20290;-80
2021/09/16 01:27:56;;;;;;;9.63;7.63;;;20.50;99.90;;;;;;6333429;22;20003;-82
2021/09/16 01:30:22;;;;;;;13.27;8.98;;;20.50;99.90;;;;;;6333018;22;20397;-77
2021/09/16 01:32:49;;;;;;;10.38;7.63;;;20.50;99.90;;;;;;6333389;22;20003;-80
2021/09/16 01:35:15;;;;;;;12.00;7.85;;;20.40;99.90;;;;;;6333506;22;20003;-80
2021/09/16 01:37:40;;;;;;;11.25;8.52;;;20.40;99.90;;;;;;6332513;22;20005;-81
2021/09/16 01:40:07;;;;;;;12.05;8.68;;;20.40;99.90;;;;;;6333767;22;20128;-81
2021/09/16 01:42:33;;;;;;;14.85;9.55;;;20.40;99.90;;;;;;6333576;22;20085;-80
2021/09/16 01:44:58;;;;;;;10.73;8.98;;;20.40;99.90;;;;;;6334108;22;20033;-81
2021/09/16 01:47:24;;;;;;;14.98;9.10;;;20.40;99.90;;;;;;6335829;22;19995;-79
2021/09/16 01:49:49;;;;;;;15.63;9.57;;;20.40;99.90;;;;;;6332741;22;20003;-81
2021/09/16 01:52:16;;;;;;;14.40;9.30;;;20.40;99.90;;;;;;6334161;22;20003;-80
2021/09/16 01:54:43;;;;;;;13.38;9.88;;;20.30;99.90;;;;;;6334253;22;19998;-81
2021/09/16 01:57:09;;;;;;;19.70;10.40;;;20.30;99.90;;;;;;6333239;22;20009;-80
2021/09/16 01:59:35;;;;;;;17.80;11.32;;;20.30;99.90;;;;;;6333931;22;20007;-78
2021/09/16 02:02:01;;;;;;;13.18;9.38;;;20.30;99.90;;;;;;6333968;22;20083;-80
2021/09/16 02:04:26;;;;;;;12.60;10.07;;;20.20;99.90;;;;;;6334693;22;20083;-79
2021/09/16 02:06:52;;;;;;;14.98;10.77;;;20.20;99.90;;;;;;6334444;22;20073;-80
2021/09/16 02:09:17;;;;;;;14.70;11.05;;;20.20;99.90;;;;;;6332897;22;20294;-80
2021/09/16 02:11:43;;;;;;;14.25;10.98;;;20.20;99.90;;;;;;6335583;22;20011;-82
2021/09/16 02:14:08;;;;;;;17.92;11.70;;;20.10;99.90;;;;;;6334902;22;20347;-81
2021/09/16 02:16:34;;;;;;;16.55;10.65;;;20.10;99.90;;;;;;6306404;22;20037;-81
2021/09/16 02:18:59;;;;;;;17.02;12.45;;;20.10;99.90;;;;;;6332943;22;20435;-82
2021/09/16 02:21:25;;;;;;;16.83;12.10;;;20.00;99.90;;;;;;6333212;22;20007;-80
2021/09/16 02:23:50;;;;;;;21.77;13.10;;;19.90;99.90;;;;;;6333548;22;20002;-79
2021/09/16 02:26:16;;;;;;;15.95;12.10;;;19.90;99.90;;;;;;6332548;22;20003;-79
2021/09/16 02:28:41;;;;;;;20.67;14.13;;;19.90;99.90;;;;;;6332334;22;20003;-80
2021/09/16 02:31:07;;;;;;;18.50;13.32;;;19.90;99.90;;;;;;6305683;22;20006;-79
2021/09/16 02:33:33;;;;;;;22.10;14.32;;;19.80;99.90;;;;;;6335237;22;20422;-80
2021/09/16 02:35:59;;;;;;;20.38;14.57;;;19.80;99.90;;;;;;6333470;22;19999;-81
2021/09/16 02:38:25;;;;;;;17.33;13.23;;;19.80;99.90;;;;;;6334350;22;19991;-78
2021/09/16 02:40:51;;;;;;;21.05;15.45;;;19.70;99.90;;;;;;6333873;22;20094;-81
2021/09/16 02:43:16;;;;;;;24.50;15.88;;;19.70;99.90;;;;;;6334330;22;20103;-79
2021/09/16 02:45:42;;;;;;;23.55;16.55;;;19.70;99.90;;;;;;6336862;22;20007;-81
2021/09/16 02:48:07;;;;;;;24.05;14.98;;;19.70;99.90;;;;;;6333195;22;20355;-80
2021/09/16 02:50:34;;;;;;;23.63;16.95;;;19.70;99.90;;;;;;6306906;22;20063;-80
2021/09/16 02:52:59;;;;;;;24.40;16.88;;;19.70;99.90;;;;;;6336014;22;20606;-81
2021/09/16 02:55:24;;;;;;;28.90;19.33;;;19.60;99.90;;;;;;6334166;22;20007;-80
2021/09/16 02:57:50;;;;;;;29.60;19.25;;;19.60;99.90;;;;;;6307478;22;20002;-81
2021/09/16 03:00:16;;;;;;;28.88;17.80;;;19.60;99.90;;;;;;6335282;22;20311;-81
2021/09/16 03:02:41;;;;;;;30.17;20.40;;;19.60;99.90;;;;;;6334182;22;20013;-79
2021/09/16 03:05:08;;;;;;;29.67;19.33;;;19.50;99.90;;;;;;6334286;22;19999;-79
2021/09/16 03:07:33;;;;;;;33.20;20.20;;;19.40;99.90;;;;;;6335006;22;20030;-80
2021/09/16 03:09:59;;;;;;;31.63;20.08;;;19.40;99.90;;;;;;6307652;22;20024;-80
2021/09/16 03:12:24;;;;;;;34.20;19.52;;;19.40;99.90;;;;;;6333608;22;20472;-78
2021/09/16 03:14:49;;;;;;;35.60;21.08;;;19.40;99.90;;;;;;6333547;22;20010;-79
2021/09/16 03:17:15;;;;;;;36.08;21.13;;;19.30;99.90;;;;;;6334015;22;20025;-80
2021/09/16 03:19:40;;;;;;;32.47;19.80;;;19.30;99.90;;;;;;6332508;22;20003;-79
2021/09/16 03:22:06;;;;;;;34.50;20.95;;;19.30;99.90;;;;;;6333840;22;20038;-80
2021/09/16 03:24:31;;;;;;;33.40;20.65;;;19.30;99.90;;;;;;6335210;22;20078;-81
2021/09/16 03:26:57;;;;;;;35.15;21.08;;;19.20;99.90;;;;;;6336290;22;20367;-80
2021/09/16 03:29:22;;;;;;;34.33;21.95;;;19.20;99.90;;;;;;6336290;22;20082;-79
2021/09/16 03:31:49;;;;;;;36.65;21.02;;;19.20;99.90;;;;;;6336263;22;20052;-79
2021/09/16 03:34:14;;;;;;;34.20;19.95;;;19.20;99.90;;;;;;6336870;22;20448;-79
2021/09/16 03:36:40;;;;;;;36.05;22.45;;;19.20;99.90;;;;;;6336998;22;19995;-80
2021/09/16 03:39:05;;;;;;;32.95;22.35;;;19.20;99.90;;;;;;6336151;22;20083;-80
2021/09/16 03:41:31;;;;;;;36.70;21.38;;;19.10;99.90;;;;;;6336837;22;20668;-82
2021/09/16 03:43:58;;;;;;;37.33;20.50;;;19.10;99.90;;;;;;6338211;22;20011;-81
2021/09/16 03:46:24;;;;;;;32.05;20.10;;;19.10;99.90;;;;;;6336677;22;20435;-81
2021/09/16 03:48:49;;;;;;;33.80;21.13;;;19.20;99.90;;;;;;6335863;22;20018;-80
2021/09/16 03:51:15;;;;;;;34.63;21.98;;;19.20;99.90;;;;;;6337287;22;20489;-80
2021/09/16 03:53:40;;;;;;;28.67;18.88;;;19.20;99.90;;;;;;6337902;22;19999;-80
2021/09/16 03:56:06;;;;;;;33.00;20.95;;;19.20;99.90;;;;;;6336966;22;20006;-81
2021/09/16 03:58:31;;;;;;;32.25;19.80;;;19.20;99.90;;;;;;6308394;22;20424;-80
2021/09/16 04:00:57;;;;;;;32.03;20.27;;;19.20;99.90;;;;;;6336542;22;20025;-83
2021/09/16 04:03:22;;;;;;;33.38;21.10;;;19.10;99.90;;;;;;6337861;22;20025;-79
2021/09/16 04:05:48;;;;;;;35.17;21.67;;;19.10;99.90;;;;;;6335749;22;20025;-80
2021/09/16 04:08:13;;;;;;;31.63;19.02;;;19.10;99.90;;;;;;6334562;22;20033;-81
2021/09/16 04:10:39;;;;;;;29.92;19.70;;;19.10;99.90;;;;;;6335634;22;20002;-81
2021/09/16 04:13:06;;;;;;;31.92;20.70;;;19.10;99.90;;;;;;6335557;22;20347;-81
2021/09/16 04:15:32;;;;;;;28.88;19.13;;;19.10;99.90;;;;;;6335956;22;20002;-80
2021/09/16 04:17:57;;;;;;;28.15;18.88;;;19.10;99.90;;;;;;6335372;22;20034;-79
2021/09/16 04:20:23;;;;;;;32.22;19.40;;;19.10;99.90;;;;;;6335618;22;20392;-80
2021/09/16 04:22:48;;;;;;;32.15;21.33;;;19.10;99.90;;;;;;6332346;22;20010;-81
2021/09/16 04:25:14;;;;;;;27.33;19.38;;;19.10;99.90;;;;;;6336109;22;20078;-79
2021/09/16 04:27:40;;;;;;;29.20;19.73;;;19.00;99.90;;;;;;6334154;22;20018;-81
2021/09/16 04:30:07;;;;;;;28.88;19.13;;;19.00;99.90;;;;;;6335248;22;20038;-79
2021/09/16 04:32:32;;;;;;;34.03;19.27;;;19.00;99.90;;;;;;6297638;22;20007;-80
2021/09/16 04:34:58;;;;;;;31.00;20.23;;;18.90;99.90;;;;;;6330978;22;20325;-79
2021/09/16 04:37:24;;;;;;;27.95;18.70;;;18.90;99.90;;;;;;6331113;22;20443;-80
2021/09/16 04:39:50;;;;;;;29.38;19.95;;;18.80;99.90;;;;;;6330011;22;19999;-78
2021/09/16 04:42:15;;;;;;;29.08;20.10;;;18.80;99.90;;;;;;6330748;22;20011;-81
2021/09/16 04:44:41;;;;;;;29.38;19.52;;;18.80;99.90;;;;;;6331905;22;20091;-79
2021/09/16 04:47:06;;;;;;;30.73;20.20;;;18.80;99.90;;;;;;6331062;22;20340;-81
2021/09/16 04:49:32;;;;;;;28.77;18.90;;;18.70;99.90;;;;;;6301829;22;20807;-81
2021/09/16 04:51:58;;;;;;;30.35;19.23;;;18.70;99.90;;;;;;6329460;22;20007;-79
2021/09/16 04:54:23;;;;;;;26.10;17.45;;;18.70;99.90;;;;;;6330917;22;19999;-80
2021/09/16 04:56:49;;;;;;;19.95;14.40;;;18.70;99.90;;;;;;6331634;22;20325;-79
2021/09/16 04:59:14;;;;;;;20.92;13.85;;;18.60;99.90;;;;;;6301892;22;20021;-80
2021/09/16 05:01:40;;;;;;;16.08;11.60;;;18.70;99.90;;;;;;6330093;22;20030;-81
2021/09/16 05:04:05;;;;;;;16.50;12.23;;;18.60;99.90;;;;;;6330666;22;20081;-79
2021/09/16 05:06:31;;;;;;;16.35;12.02;;;18.50;99.90;;;;;;6329096;22;20003;-80
2021/09/16 05:08:57;;;;;;;17.40;11.90;;;18.50;99.90;;;;;;6327717;22;20014;-80
2021/09/16 05:11:22;;;;;;;20.10;11.73;;;18.40;99.90;;;;;;6332021;22;20432;-80
2021/09/16 05:13:48;;;;;;;15.85;12.05;;;18.40;99.90;;;;;;6331823;22;20065;-81
2021/09/16 05:16:13;;;;;;;21.23;12.68;;;18.40;99.90;;;;;;6304979;22;20094;-81
2021/09/16 05:18:39;;;;;;;18.85;12.52;;;18.40;99.90;;;;;;6331618;22;20107;-81
2021/09/16 05:21:04;;;;;;;17.35;11.50;;;18.40;99.90;;;;;;6304105;22;20026;-81
2021/09/16 05:23:30;;;;;;;18.45;10.85;;;18.40;99.90;;;;;;6332022;22;20006;-81
2021/09/16 05:25:55;;;;;;;16.70;10.02;;;18.50;99.90;;;;;;6333236;22;20011;-81
2021/09/16 05:28:21;;;;;;;18.33;11.57;;;18.50;99.90;;;;;;6331116;22;20014;-80
2021/09/16 05:30:46;;;;;;;16.02;11.60;;;18.50;99.90;;;;;;6332420;22;20009;-81
2021/09/16 05:33:12;;;;;;;14.88;10.82;;;18.50;99.90;;;;;;6304184;22;20518;-81
2021/09/16 05:35:39;;;;;;;20.52;11.90;;;18.60;99.90;;;;;;6303860;22;20064;-81
2021/09/16 05:38:06;;;;;;;17.00;12.30;;;18.60;99.90;;;;;;6331295;22;20002;-81
2021/09/16 05:40:32;;;;;;;19.15;12.40;;;18.60;99.90;;;;;;6304226;22;20386;-81
2021/09/16 05:42:58;;;;;;;15.85;10.65;;;18.60;99.90;;;;;;6303247;22;20459;-81
2021/09/16 05:45:23;;;;;;;17.27;10.43;;;18.60;99.90;;;;;;6331935;22;20003;-79
2021/09/16 05:47:49;;;;;;;14.85;9.80;;;18.60;99.90;;;;;;6329918;22;20003;-81
2021/09/16 05:50:14;;;;;;;11.60;8.90;;;18.60;99.90;;;;;;6331644;22;20021;-79
2021/09/16 05:52:40;;;;;;;12.23;9.93;;;18.60;99.90;;;;;;6330809;22;20003;-80
2021/09/16 05:55:06;;;;;;;14.38;9.88;;;18.60;99.90;;;;;;6331081;22;20056;-79
2021/09/16 05:57:32;;;;;;;12.52;8.82;;;18.70;99.90;;;;;;6332984;22;19995;-79
2021/09/16 05:59:57;;;;;;;15.27;8.85;;;18.60;99.90;;;;;;6305643;22;19995;-79
2021/09/16 06:02:23;;;;;;;11.00;8.05;;;18.60;99.90;;;;;;6332203;22;20105;-80
2021/09/16 06:04:49;;;;;;;12.98;8.52;;;18.60;99.90;;;;;;6304673;22;20006;-80
2021/09/16 06:07:14;;;;;;;11.52;8.30;;;18.60;99.90;;;;;;6332237;22;20024;-81
2021/09/16 06:09:40;;;;;;;12.68;8.40;;;18.60;99.90;;;;;;6331579;22;19999;-81
2021/09/16 06:12:07;;;;;;;13.93;9.02;;;18.60;99.90;;;;;;6333132;22;20003;-80
2021/09/16 06:14:33;;;;;;;11.93;9.40;;;18.60;99.90;;;;;;6332799;22;20046;-80
2021/09/16 06:16:59;;;;;;;12.98;8.95;;;18.70;99.90;;;;;;6334009;22;20026;-80
2021/09/16 06:19:24;;;;;;;16.67;8.50;;;18.70;99.90;;;;;;6332391;22;20416;-80
2021/09/16 06:21:50;;;;;;;12.65;8.43;;;18.80;99.90;;;;;;6332026;22;19999;-80
2021/09/16 06:24:15;;;;;;;10.73;8.50;;;18.70;99.90;;;;;;6332431;22;20007;-79
2021/09/16 06:26:41;;;;;;;12.85;8.88;;;18.80;99.90;;;;;;6332787;22;20026;-79
2021/09/16 06:29:06;;;;;;;12.25;8.82;;;18.80;99.90;;;;;;6332023;22;20092;-81
2021/09/16 06:31:32;;;;;;;18.75;10.52;;;18.80;99.90;;;;;;6304662;22;20540;-81
2021/09/16 06:33:57;;;;;;;15.60;9.27;;;18.70;99.90;;;;;;6332064;22;20003;-80
2021/09/16 06:36:23;;;;;;;18.20;9.23;;;18.80;99.90;;;;;;6305756;22;20087;-80
2021/09/16 06:38:48;;;;;;;13.30;8.73;;;18.80;99.90;;;;;;6303914;22;20014;-81
2021/09/16 06:41:14;;;;;;;14.77;9.13;;;18.80;99.90;;;;;;6331835;22;20006;-80
2021/09/16 06:43:39;;;;;;;16.25;10.07;;;18.90;99.90;;;;;;6332109;22;20385;-81
2021/09/16 06:46:05;;;;;;;15.25;9.27;;;18.80;99.90;;;;;;6331671;22;20332;-81
2021/09/16 06:48:30;;;;;;;14.10;10.27;;;18.90;99.90;;;;;;6330945;22;20006;-80
2021/09/16 06:50:56;;;;;;;13.48;9.73;;;19.00;99.90;;;;;;6303243;22;20093;-81
2021/09/16 06:53:22;;;;;;;16.65;9.70;;;19.00;99.90;;;;;;6331413;22;20010;-81
2021/09/16 06:55:48;;;;;;;14.10;9.80;;;19.00;99.90;;;;;;6331729;22;20583;-80
2021/09/16 06:58:13;;;;;;;13.68;9.27;;;19.00;99.90;;;;;;6331107;22;20068;-81
2021/09/16 07:00:38;;;;;;;23.90;10.35;;;19.00;99.90;;;;;;6303894;22;20102;-81
2021/09/16 07:03:04;;;;;;;17.30;9.82;;;19.00;99.90;;;;;;6333259;22;20329;-81
2021/09/16 07:05:30;;;;;;;17.35;10.43;;;19.10;99.90;;;;;;6332650;22;20016;-79
2021/09/16 07:07:55;;;;;;;16.63;9.90;;;19.00;99.90;;;;;;6332663;22;19998;-80
2021/09/16 07:10:21;;;;;;;15.50;9.88;;;19.10;99.90;;;;;;6333589;22;20085;-81
2021/09/16 07:12:46;;;;;;;16.58;9.55;;;19.10;99.90;;;;;;6332672;22;20387;-80
2021/09/16 07:15:12;;;;;;;16.38;9.75;;;19.10;99.90;;;;;;6333216;22;20228;-80
2021/09/16 07:17:38;;;;;;;16.42;10.02;;;19.20;99.90;;;;;;6331907;22;20051;-78
2021/09/16 07:20:04;;;;;;;15.13;9.27;;;19.20;99.90;;;;;;6333492;22;20265;-80
2021/09/16 07:22:29;;;;;;;12.27;8.48;;;19.20;99.90;;;;;;6332100;22;20425;-81
2021/09/16 07:24:55;;;;;;;10.63;8.40;;;19.20;99.90;;;;;;6333640;22;20014;-80
2021/09/16 07:27:20;;;;;;;14.45;8.75;;;19.20;99.90;;;;;;6333356;22;20040;-79
2021/09/16 07:29:46;;;;;;;12.40;8.38;;;19.20;99.90;;;;;;6332202;22;20409;-80
2021/09/16 07:32:11;;;;;;;13.52;8.77;;;19.20;99.90;;;;;;6333028;22;20034;-81
2021/09/16 07:34:37;;;;;;;13.25;8.25;;;19.30;99.90;;;;;;6332509;22;20027;-80
2021/09/16 07:37:03;;;;;;;10.75;8.00;;;19.30;99.90;;;;;;6333120;22;19999;-79
2021/09/16 07:39:28;;;;;;;9.98;7.38;;;19.30;99.90;;;;;;6332153;22;20002;-77
2021/09/16 07:41:54;;;;;;;9.52;7.53;;;19.40;99.90;;;;;;6330717;22;20009;-84
2021/09/16 07:44:19;;;;;;;10.15;7.13;;;19.40;99.90;;;;;;6332453;22;20010;-79
2021/09/16 07:46:45;;;;;;;9.93;7.18;;;19.50;99.90;;;;;;6331752;22;20371;-79
2021/09/16 07:49:11;;;;;;;11.40;7.75;;;19.50;99.90;;;;;;6304341;22;20111;-80
2021/09/16 07:51:36;;;;;;;12.88;7.70;;;19.60;99.90;;;;;;6305052;22;20421;-79
2021/09/16 07:54:02;;;;;;;10.23;8.07;;;19.60;99.80;;;;;;6332005;22;20021;-79
2021/09/16 07:56:28;;;;;;;8.65;6.35;;;19.60;99.90;;;;;;6333225;22;20045;-79
2021/09/16 07:58:53;;;;;;;9.25;5.82;;;19.70;99.60;;;;;;6331741;22;20111;-80
2021/09/16 08:01:18;;;;;;;8.70;6.28;;;19.70;99.20;;;;;;6303490;22;20051;-79
2021/09/16 08:03:44;;;;;;;9.32;6.35;;;19.80;99.20;;;;;;6331948;22;20007;-80
2021/09/16 08:06:10;;;;;;;10.35;5.32;;;19.90;99.00;;;;;;6332136;22;19995;-80
2021/09/16 08:08:36;;;;;;;7.07;5.60;;;19.90;98.50;;;;;;6330644;22;20011;-80
2021/09/16 08:11:01;;;;;;;8.38;5.10;;;19.90;98.50;;;;;;6331911;22;20003;-80
2021/09/16 08:13:27;;;;;;;7.03;5.15;;;19.90;98.30;;;;;;6330777;22;20094;-80
2021/09/16 08:15:53;;;;;;;7.07;5.38;;;19.90;98.10;;;;;;6304576;22;20006;-79
2021/09/16 08:18:19;;;;;;;7.65;5.68;;;20.00;98.70;;;;;;6331458;22;20009;-80
2021/09/16 08:20:49;;;;;;;7.60;4.95;;;20.00;98.20;;;;;;6331331;22;20018;-80
2021/09/16 08:23:15;;;;;;;5.20;4.57;;;20.10;98.00;;;;;;6331063;22;20010;-80
2021/09/16 08:25:41;;;;;;;5.43;4.43;;;20.10;98.30;;;;;;6330908;22;20090;-80
2021/09/16 08:28:07;;;;;;;12.40;5.70;;;20.10;98.20;;;;;;6331024;22;20030;-80
2021/09/16 08:30:32;;;;;;;10.93;5.18;;;20.10;98.20;;;;;;6332056;22;19999;-81
2021/09/16 08:32:58;;;;;;;6.90;5.18;;;20.20;97.40;;;;;;6330836;22;19999;-80
2021/09/16 08:35:24;;;;;;;8.68;4.75;;;20.20;97.50;;;;;;6330858;22;20070;-81
2021/09/16 08:37:49;;;;;;;8.43;5.10;;;20.30;96.60;;;;;;6302858;22;20009;-80
2021/09/16 08:40:16;;;;;;;4.63;4.15;;;20.30;96.90;;;;;;6331931;22;19995;-80
2021/09/16 08:42:44;;;;;;;6.03;4.70;;;20.30;96.60;;;;;;6330788;22;20002;-82
2021/09/16 08:45:14;;;;;;;5.53;4.65;;;20.40;96.50;;;;;;6330630;22;19999;-81
2021/09/16 08:47:41;;;;;;;5.40;3.90;;;20.30;96.70;;;;;;6331077;22;20044;-83
2021/09/16 08:50:08;;;;;;;4.75;3.95;;;20.30;96.80;;;;;;6331612;22;20357;-82
2021/09/16 08:52:37;;;;;;;4.47;2.75;;;20.30;96.60;;;;;;6330985;22;20064;-80
2021/09/16 08:55:05;;;;;;;3.40;2.88;;;20.20;96.30;;;;;;6331902;22;20096;-81
2021/09/16 08:57:35;;;;;;;5.13;3.00;;;20.00;95.70;;;;;;6304409;22;20427;-80
2021/09/16 09:00:00;;;;;;;3.88;2.58;;;19.80;95.70;;;;;;6332301;22;20405;-81
2021/09/16 09:02:26;;;;;;;4.00;2.70;;;19.70;95.90;;;;;;6331767;22;20018;-82
2021/09/16 09:04:53;;;;;;;4.70;2.83;;;19.60;96.50;;;;;;6331959;22;20045;-81
2021/09/16 09:07:19;;;;;;;3.10;2.70;;;19.50;96.40;;;;;;6332022;22;19999;-81
2021/09/16 09:09:46;;;;;;;3.97;2.35;;;19.50;96.70;;;;;;6303254;22;20007;-81
2021/09/16 09:12:16;;;;;;;2.78;2.58;;;19.40;96.60;;;;;;6331802;22;20093;-81
2021/09/16 09:14:45;;;;;;;5.97;2.42;;;19.30;96.90;;;;;;6331461;22;20176;-81
2021/09/16 09:17:30;;;;;;;4.43;2.20;;;19.30;97.00;;;;;;6331969;22;19991;-80
2021/09/16 09:19:58;;;;;;;3.20;1.92;;;19.30;96.30;;;;;;6331275;22;20003;-81
2021/09/16 09:22:33;;;;;;;3.95;2.65;;;19.30;96.70;;;;;;6331411;22;20005;-80
2021/09/16 09:25:08;;;;;;;3.70;2.30;;;19.20;96.50;;;;;;6331737;22;20534;-82
2021/09/16 09:27:46;;;;;;;3.55;2.55;;;19.20;96.90;;;;;;6303503;22;20014;-82
2021/09/16 09:30:20;;;;;;;3.30;2.25;;;19.20;97.00;;;;;;6303966;22;20106;-80
2021/09/16 09:32:50;;;;;;;2.75;2.08;;;19.20;97.10;;;;;;6303452;22;20007;-80
2021/09/16 09:35:28;;;;;;;3.55;2.20;;;19.20;97.10;;;;;;6303198;22;20303;-81
2021/09/16 09:37:54;;;;;;;3.30;1.95;;;19.30;96.30;;;;;;6331052;22;20074;-82
2021/09/16 09:40:39;;;;;;;3.08;1.60;;;19.30;96.60;;;;;;6331032;22;20434;-82
2021/09/16 09:43:23;;;;;;;3.70;1.70;;;19.30;95.60;;;;;;6303473;22;20097;-82
2021/09/16 09:45:56;;;;;;;2.47;1.42;;;19.30;96.10;;;;;;6330987;22;20003;-80
2021/09/16 09:48:22;;;;;;;2.17;1.52;;;19.40;96.20;;;;;;6329929;22;20070;-80
2021/09/16 09:50:51;;;;;;;2.90;2.10;;;19.60;96.20;;;;;;6303583;22;20033;-81
2021/09/16 09:53:16;;;;;;;2.33;1.70;;;19.70;95.80;;;;;;6330638;22;20387;-81
2021/09/16 09:55:42;;;;;;;4.15;1.40;;;20.00;95.10;;;;;;6331062;22;20271;-80
2021/09/16 09:58:07;;;;;;;2.88;1.40;;;20.20;95.00;;;;;;6330279;22;20059;-81
2021/09/16 10:00:33;;;;;;;6.07;1.55;;;20.30;94.70;;;;;;6330557;22;19998;-83
2021/09/16 10:03:00;;;;;;;5.55;2.00;;;20.50;94.80;;;;;;6331699;22;19998;-81
2021/09/16 10:05:30;;;;;;;3.70;2.25;;;20.70;94.10;;;;;;6331189;22;20102;-81
2021/09/16 10:07:57;;;;;;;3.38;2.22;;;20.80;93.90;;;;;;6331088;22;20011;-83
2021/09/16 10:10:25;;;;;;;4.22;2.22;;;20.80;94.20;;;;;;6331479;22;19999;-81
2021/09/16 10:12:53;;;;;;;5.00;1.83;;;20.80;93.90;;;;;;6329410;22;19999;-81
2021/09/16 10:15:21;;;;;;;3.42;1.92;;;20.80;93.90;;;;;;6331454;22;20404;-83
2021/09/16 10:17:49;;;;;;;2.90;2.13;;;20.90;94.60;;;;;;6330072;22;20009;-81
2021/09/16 10:20:17;;;;;;;9.27;2.00;;;20.90;93.90;;;;;;6331209;22;20417;-82
2021/09/16 10:22:48;;;;;;;4.18;2.28;;;20.90;93.50;;;;;;6302967;22;20011;-82
2021/09/16 10:25:16;;;;;;;3.80;2.28;;;21.00;93.30;;;;;;6331185;22;20002;-80
2021/09/16 10:27:45;;;;;;;3.40;1.70;;;21.00;93.60;;;;;;6330474;22;20011;-81
2021/09/16 10:30:22;;;;;;;2.42;1.42;;;21.00;93.10;;;;;;6331962;22;20186;-82
2021/09/16 10:33:23;;;;;;;2.33;1.50;;;20.90;93.70;;;;;;6330515;22;19999;-81
2021/09/16 10:35:57;;;;;;;4.78;1.60;;;20.90;93.60;;;;;;6322057;22;20014;-81
2021/09/16 10:38:43;;;;;;;3.85;1.98;;;20.90;93.80;;;;;;6329880;22;19999;-81
2021/09/16 10:41:21;;;;;;;5.10;1.88;;;20.90;93.60;;;;;;6303150;22;20035;-81
2021/09/16 10:43:51;;;;;;;3.47;1.77;;;20.90;93.90;;;;;;6331362;22;20017;-82
2021/09/16 10:46:37;;;;;;;2.22;1.92;;;20.90;93.80;;;;;;6330512;22;20014;-81
2021/09/16 10:49:24;;;;;;;4.43;2.33;;;20.80;94.00;;;;;;6302616;22;20325;-82
2021/09/16 10:51:59;;;;;;;2.78;1.98;;;20.70;94.10;;;;;;6330352;22;20417;-81
2021/09/16 10:54:29;;;;;;;7.45;2.75;;;20.70;94.20;;;;;;6331583;22;19999;-80
2021/09/16 10:57:00;;;;;;;4.47;1.60;;;20.60;94.30;;;;;;6302997;22;19999;-81
2021/09/16 10:59:50;;;;;;;8.40;2.45;;;20.60;94.30;;;;;;6330711;22;20003;-81
2021/09/16 11:02:37;;;;;;;8.70;1.98;;;20.50;94.30;;;;;;6330477;22;20003;-82
2021/09/16 11:05:05;;;;;;;3.35;1.73;;;20.50;94.40;;;;;;6328421;22;20007;-81
2021/09/16 11:07:34;;;;;;;3.38;1.63;;;20.50;94.30;;;;;;6330109;22;20051;-82
2021/09/16 11:10:15;;;;;;;3.05;2.03;;;20.40;94.60;;;;;;6330853;22;20005;-82
2021/09/16 11:12:42;;;;;;;4.13;1.70;;;20.40;94.40;;;;;;6330733;22;20003;-83
2021/09/16 11:15:10;;;;;;;7.22;1.98;;;20.20;95.00;;;;;;6330741;22;20474;-83
2021/09/16 11:17:37;;;;;;;2.72;1.65;;;20.20;94.80;;;;;;6330674;22;20014;-81
2021/09/16 11:20:04;;;;;;;6.65;1.90;;;20.10;94.70;;;;;;6330756;22;20042;-82
2021/09/16 11:22:29;;;;;;;2.80;2.28;;;20.00;95.20;;;;;;6329472;22;20432;-82
2021/09/16 11:24:56;;;;;;;2.20;1.73;;;20.10;94.90;;;;;;6330594;22;20014;-81
2021/09/16 11:27:31;;;;;;;3.65;1.75;;;20.00;95.00;;;;;;6330376;22;20007;-82
2021/09/16 11:30:00;;;;;;;3.42;2.10;;;20.00;95.20;;;;;;6330584;22;20086;-82
2021/09/16 11:32:34;;;;;;;2.95;1.48;;;20.10;94.60;;;;;;6330326;22;20006;-81
2021/09/16 11:35:06;;;;;;;2.03;1.83;;;20.20;95.00;;;;;;6331360;22;20022;-81
2021/09/16 11:37:52;;;;;;;3.15;1.80;;;20.30;94.70;;;;;;6330685;22;20301;-82
2021/09/16 11:40:24;;;;;;;2.90;1.75;;;20.30;94.30;;;;;;6330639;22;20602;-82
2021/09/16 11:42:52;;;;;;;2.90;1.92;;;20.30;93.90;;;;;;6330270;22;20003;-81
2021/09/16 11:45:19;;;;;;;2.20;1.90;;;20.30;94.00;;;;;;6303126;22;20011;-80
2021/09/16 11:47:52;;;;;;;4.82;2.22;;;20.40;92.30;;;;;;6330580;22;20009;-80
2021/09/16 11:50:37;;;;;;;2.55;2.00;;;20.40;92.70;;;;;;6333274;22;20006;-82
2021/09/16 11:53:12;;;;;;;2.72;1.95;;;20.40;92.00;;;;;;6332140;22;20018;-81
2021/09/16 11:55:40;;;;;;;4.78;2.65;;;20.40;91.70;;;;;;6304545;22;20038;-83
2021/09/16 11:58:26;;;;;;;10.32;3.50;;;20.30;92.10;;;;;;6331539;22;20487;-81
2021/09/16 12:00:59;;;;;;;4.72;2.55;;;20.40;93.00;;;;;;6331828;22;20055;-80
2021/09/16 12:03:30;;;;;;;10.55;2.10;;;20.50;92.40;;;;;;6331860;22;20007;-79
2021/09/16 12:06:01;;;;;;;3.70;2.33;;;20.60;92.20;;;;;;6331434;22;20003;-79
2021/09/16 12:08:31;;;;;;;5.85;2.20;;;20.80;92.30;;;;;;6331656;22;20006;-79
2021/09/16 12:11:06;;;;;;;3.55;2.13;;;20.90;91.30;;;;;;6331926;22;20013;-80
2021/09/16 12:13:43;;;;;;;3.08;1.88;;;21.20;91.40;;;;;;6331597;22;20063;-78
2021/09/16 12:16:17;;;;;;;5.07;2.22;;;21.20;90.10;;;;;;6332508;22;20185;-80
2021/09/16 12:18:47;;;;;;;8.98;2.20;;;21.40;89.40;;;;;;6330790;22;20049;-79
2021/09/16 12:21:21;;;;;;;9.90;2.90;;;21.40;90.00;;;;;;6332491;22;19995;-82
2021/09/16 12:23:53;;;;;;;9.60;2.15;;;21.30;89.80;;;;;;6331321;22;20015;-82
2021/09/16 12:26:24;;;;;;;4.88;2.00;;;21.20;90.10;;;;;;6331964;22;20010;-81
2021/09/16 12:28:57;;;;;;;2.72;1.50;;;21.10;89.50;;;;;;6331677;22;20010;-82
2021/09/16 12:31:24;;;;;;;2.67;1.75;;;20.90;90.00;;;;;;6304395;22;20007;-82
2021/09/16 12:33:57;;;;;;;8.68;2.08;;;20.80;90.30;;;;;;6331804;22;20010;-80
2021/09/16 12:36:23;;;;;;;4.47;0.90;;;20.70;90.10;;;;;;6332112;22;20038;-79
2021/09/16 12:38:55;;;;;;;3.42;1.02;;;20.80;90.80;;;;;;6331461;22;20338;-79